La Sarre, Canada
Current Conditions -  °F | °C
As of 10:00 AM on Saturday 22 Nov 2014 (Local Time) from CYUY Reporting Station
Blowing Snow Blowing Snow  
Wind Chill: -8°   Ceiling: 1500
Heat Index: -1°   Visibility: 15mi
Dew Point: -3°   Wind: 21mph
Humidity: 86%   Direction: 230°SW
Pressure: 29.66"   Gusts: 31mph
Location:  48.8°N, 79.2°W
Report Text: CYUY 221500Z 23018G27KT 15SM DRSN OVC015 M01/M03 A2966 RMK SC8 SLP063
Loading
Personal Weather Stations






























Interactive Weather Map New forecast layout! Learn more

10-Day Weather Forecast

Advertisements
Track Severe Weather on mobile